CW1018 Tampa FL US current weather conditions

sailwx.info

Wind from 315 at 5 knots gusting 6

Air temperature 8.9° C

Last reported at 2018-Dec-12 02:00 UTC.
Time now 2018-Dec-12 02:36 UTC

Location: N 28°04' W 082°26'.
View on Google Maps.

See reports from other nearby stations

  
Tides and Currents Weather Stations Pressure Air Temp Water Temp Dewpoint Dewpoint Depression Visibility Wind Speed Wind Dir Waves Ship Positions
date/time (UTC)wind fromknots sea level pressurealtimeterstation pressurevisibilityair tempwater tempwave heightnotes
2018-Dec-12 02:00 315 5 gusting 6 8.9
2018-Dec-12 01:45 337 4 gusting 5 8.9
2018-Dec-12 01:30 315 3 gusting 5 8.9
2018-Dec-12 01:15 337 4 gusting 5 8.9
2018-Dec-12 01:00 292 2 gusting 3 8.9
2018-Dec-12 00:45 315 2 gusting 2 9.4
2018-Dec-12 00:30 315 2 gusting 2 9.4
2018-Dec-12 00:15 315 2 gusting 4 9.4
2018-Dec-12 00:00 315 1 gusting 4 10.0
2018-Dec-11 23:45 292 3 gusting 4 10.0
2018-Dec-11 23:30 315 1 gusting 5 10.6
2018-Dec-11 23:15 315 3 gusting 6 10.6
2018-Dec-11 23:00 292 3 gusting 3 11.1
2018-Dec-11 22:45 292 2 gusting 6 11.7
2018-Dec-11 22:30 315 3 gusting 6 12.2
2018-Dec-11 22:15 292 3 gusting 5 12.8
2018-Dec-11 22:00 270 3 gusting 6 13.9
2018-Dec-11 21:45 292 7 gusting 8 13.9
2018-Dec-11 21:30 315 6 gusting 6 13.9
2018-Dec-11 21:15 270 4 gusting 6 13.9
2018-Dec-11 21:00 270 4 gusting 5 13.9
2018-Dec-11 20:45 360 6 gusting 7 13.9
2018-Dec-11 20:30 247 1 gusting 3 13.3
2018-Dec-11 20:15 360 7 gusting 10 13.3
2018-Dec-11 20:00 292 5 gusting 7 13.3
2018-Dec-11 19:45 337 5 gusting 8 13.3
2018-Dec-11 19:30 315 9 gusting 11 13.3
2018-Dec-11 19:15 360 6 gusting 6 12.8
2018-Dec-11 19:00 337 4 gusting 6 12.8
2018-Dec-11 18:45 337 4 gusting 6 12.8
2018-Dec-11 18:30 315 5 gusting 7 12.2
2018-Dec-11 18:15 270 6 gusting 12 12.2
2018-Dec-11 18:00 247 6 gusting 10 12.2
2018-Dec-11 17:45 337 6 gusting 13 12.2
2018-Dec-11 17:30 247 9 gusting 14 11.7
2018-Dec-11 17:15 315 7 gusting 10 11.7
2018-Dec-11 17:00 270 6 gusting 8 11.7
2018-Dec-11 16:45 337 4 gusting 6 11.1
2018-Dec-11 16:30 315 6 gusting 10 10.6
2018-Dec-11 16:15 292 5 gusting 9 10.6
2018-Dec-11 16:00 337 9 gusting 17 10.6
2018-Dec-11 15:45 337 10 gusting 12 10.6
2018-Dec-11 15:30 360 13 gusting 16 10.0
2018-Dec-11 15:15 315 12 gusting 14 10.0
2018-Dec-11 15:00 360 6 gusting 8 10.0
2018-Dec-11 14:45 337 13 gusting 15 10.0
2018-Dec-11 14:30 315 8 gusting 12 10.0
2018-Dec-11 14:15 315 9 gusting 11 9.4
2018-Dec-11 14:00 337 6 gusting 8 9.4
2018-Dec-11 13:45 360 6 gusting 9 8.9
2018-Dec-11 13:30 315 8 gusting 10 8.9
2018-Dec-11 13:15 360 6 gusting 7 8.3
2018-Dec-11 13:00 337 6 gusting 9 8.3
2018-Dec-11 12:45 337 6 gusting 9 8.3
2018-Dec-11 12:30 315 5 gusting 6 7.8
2018-Dec-11 12:15 315 4 gusting 6 7.8
2018-Dec-11 12:00 337 6 gusting 8 7.8
2018-Dec-11 11:45 337 5 gusting 6 7.8
2018-Dec-11 11:30 337 4 gusting 5 7.8
2018-Dec-11 11:15 337 2 gusting 3 7.8
2018-Dec-11 11:00 337 2 gusting 2 7.8
2018-Dec-11 10:45 337 2 gusting 2 7.8
2018-Dec-11 10:30 337 3 gusting 4 7.8
2018-Dec-11 10:15 337 2 gusting 2 7.2
2018-Dec-11 10:00 315 3 gusting 3 7.2
2018-Dec-11 09:45 315 1 gusting 1 7.2
2018-Dec-11 09:30 315 1 gusting 1 7.2
2018-Dec-11 09:15 337 2 gusting 3 7.2
2018-Dec-11 09:00 315 2 gusting 3 7.8
2018-Dec-11 08:45 315 1 gusting 1 7.8
2018-Dec-11 08:30 337 5 gusting 6 7.8
2018-Dec-11 08:15 337 4 gusting 5 7.8
2018-Dec-11 08:00 337 5 gusting 6 7.8
2018-Dec-11 07:45 337 3 gusting 4 8.3
2018-Dec-11 07:30 360 4 gusting 5 8.3
2018-Dec-11 07:15 337 3 gusting 3 8.3
2018-Dec-11 07:00 337 0 gusting 3 8.3
2018-Dec-11 06:45 360 3 gusting 4 8.3
2018-Dec-11 06:30 337 2 gusting 3 8.3
2018-Dec-11 06:15 315 2 gusting 3 8.3
2018-Dec-11 06:00 022 2 gusting 3 8.3
2018-Dec-11 05:45 022 2 gusting 2 8.3
2018-Dec-11 05:30 022 0 gusting 1 8.3
2018-Dec-11 05:15 360 4 gusting 6 8.3
2018-Dec-11 05:00 112 2 gusting 3 8.3
2018-Dec-11 04:45 022 3 gusting 5 8.9
2018-Dec-11 04:30 360 3 gusting 4 8.9
2018-Dec-11 04:15 022 2 gusting 5 8.9
2018-Dec-11 04:00 022 2 gusting 4 8.9
2018-Dec-11 03:45 022 1 gusting 2 8.9
2018-Dec-11 03:30 337 5 gusting 6 8.9
2018-Dec-11 03:15 360 4 gusting 4 8.9
2018-Dec-11 03:00 360 4 gusting 5 8.9
2018-Dec-11 02:45 337 5 gusting 6 8.9
2018-Dec-11 02:30 360 5 gusting 6 8.9
2018-Dec-11 02:15 337 3 gusting 3 9.4
2018-Dec-11 02:00 360 5 gusting 6 9.4
2018-Dec-11 01:45 360 3 gusting 5 9.4
2018-Dec-11 01:30 360 4 gusting 5 9.4
2018-Dec-11 01:15 360 5 gusting 6 9.4
2018-Dec-11 01:00 315 1 gusting 1 9.4
2018-Dec-11 00:45 315 3 gusting 3 10.0
2018-Dec-11 00:30 337 4 gusting 5 10.0
2018-Dec-11 00:15 315 5 gusting 8 10.0
2018-Dec-11 00:00 315 6 gusting 8 10.0
2018-Dec-10 23:45 315 6 gusting 11 10.6
2018-Dec-10 23:30 315 5 gusting 8 10.6
2018-Dec-10 23:15 337 5 gusting 6 11.1
2018-Dec-10 23:00 315 8 gusting 13 11.1
2018-Dec-10 22:45 360 8 gusting 10 11.7
2018-Dec-10 22:30 360 3 gusting 6 11.7
2018-Dec-10 22:15 292 5 gusting 9 11.7
2018-Dec-10 22:00 292 4 gusting 6 12.2
2018-Dec-10 21:45 315 2 gusting 5 12.2
2018-Dec-10 21:30 315 9 gusting 12 12.2
2018-Dec-10 21:15 315 6 gusting 12 12.8
2018-Dec-10 21:00 360 3 gusting 6 12.8
2018-Dec-10 20:45 360 3 gusting 6 12.8
2018-Dec-10 20:30 337 5 gusting 13 13.3
2018-Dec-10 20:15 315 6 gusting 7 13.3
2018-Dec-10 20:00 337 6 gusting 9 13.9
2018-Dec-10 19:45 315 6 gusting 10 14.4
2018-Dec-10 19:30 292 7 gusting 15 13.9
2018-Dec-10 19:15 270 7 gusting 14 13.9
2018-Dec-10 19:00 270 9 gusting 13 14.4
2018-Dec-10 18:45 315 4 gusting 8 14.4
2018-Dec-10 18:30 270 6 gusting 11 13.9
2018-Dec-10 18:15 292 8 gusting 13 13.9
2018-Dec-10 18:00 270 6 gusting 12 13.9
2018-Dec-10 17:45 292 6 gusting 12 14.4
2018-Dec-10 17:30 270 6 gusting 8 14.4
2018-Dec-10 17:15 292 12 gusting 17 13.9
2018-Dec-10 17:00 292 6 gusting 10 13.9
2018-Dec-10 16:45 292 5 gusting 6 13.9
2018-Dec-10 16:30 292 3 gusting 6 14.4
2018-Dec-10 16:15 270 5 gusting 9 14.4
2018-Dec-10 16:00 270 6 gusting 12 14.4
2018-Dec-10 15:45 270 5 gusting 9 14.4
2018-Dec-10 15:30 292 3 gusting 5 14.4
2018-Dec-10 15:15 270 6 gusting 11 13.9
2018-Dec-10 15:00 315 6 gusting 11 13.9
2018-Dec-10 14:45 315 8 gusting 11 13.9
2018-Dec-10 14:30 315 8 gusting 11 13.3
2018-Dec-10 14:15 315 7 gusting 12 13.3
2018-Dec-10 14:00 292 5 gusting 6 13.3
2018-Dec-10 13:45 315 3 gusting 4 13.3
2018-Dec-10 13:30 292 6 gusting 9 13.3
2018-Dec-10 13:15 292 4 gusting 6 13.3
2018-Dec-10 13:00 315 5 gusting 6 13.3
2018-Dec-10 12:45 315 6 gusting 9 13.3
2018-Dec-10 12:30 315 4 gusting 6 13.3
2018-Dec-10 12:15 337 4 gusting 6 13.3
2018-Dec-10 12:00 315 5 gusting 9 13.3
2018-Dec-10 11:45 315 6 gusting 9 13.3
2018-Dec-10 11:30 315 8 gusting 10 13.3
2018-Dec-10 11:15 315 6 gusting 7 13.3
2018-Dec-10 10:45 315 4 gusting 6 13.9
2018-Dec-10 10:30 337 4 gusting 6 13.9
2018-Dec-10 10:15 292 5 gusting 7 13.9
2018-Dec-10 10:00 315 3 gusting 4 13.9
2018-Dec-10 09:45 292 4 gusting 7 13.9
2018-Dec-10 09:30 315 4 gusting 7 13.9
2018-Dec-10 09:15 292 6 gusting 8 14.4
2018-Dec-10 09:00 337 1 gusting 4 14.4
2018-Dec-10 08:45 337 5 gusting 8 14.4
2018-Dec-10 08:30 315 3 gusting 9 15.0
2018-Dec-10 08:15 270 4 gusting 8 15.0
2018-Dec-10 08:00 270 6 gusting 12 15.0
2018-Dec-10 07:45 292 6 gusting 7 15.0
2018-Dec-10 07:30 292 6 gusting 10 15.0
2018-Dec-10 07:15 315 7 gusting 12 15.6
2018-Dec-10 07:00 112 4 gusting 8 15.6
2018-Dec-10 06:45 292 2 gusting 4 15.6
2018-Dec-10 06:30 270 12 gusting 15 16.1
2018-Dec-10 06:15 270 4 gusting 6 16.1
2018-Dec-10 06:00 270 4 gusting 7 16.7
2018-Dec-10 05:45 292 8 gusting 12 16.7
2018-Dec-10 05:30 315 7 gusting 11 16.7
2018-Dec-10 05:15 315 6 gusting 9 17.2
2018-Dec-10 05:00 270 7 gusting 13 17.8
2018-Dec-10 04:45 270 8 gusting 13 18.3
2018-Dec-10 04:30 270 9 gusting 13 18.3
2018-Dec-10 04:15 247 8 gusting 13 18.3
2018-Dec-10 04:00 270 8 gusting 13 18.3
2018-Dec-10 03:45 247 12 gusting 15 18.3
2018-Dec-10 03:30 225 8 gusting 10 18.9
2018-Dec-10 03:15 247 7 gusting 13 18.9
2018-Dec-10 03:00 270 9 gusting 13 18.9
2018-Dec-10 02:45 247 8 gusting 13 18.9
2018-Dec-10 02:30 247 5 gusting 9 18.9
2018-Dec-10 02:15 247 6 gusting 10 18.9
2018-Dec-10 02:00 225 6 gusting 10 18.9